Latest Coastal Weather Observations for Port Fairy

IDV60701

Issued at 3:31 am EST Thursday 23 May 2024 (issued every 10 minutes, with the page automatically refreshed every 10 minutes)

About coastal observations | Map of coastal stations | Coastal observations for VIC | Marine services | Other Formats
Station Details ID: 090175 Name: PORT FAIRY AWS Lat: -38.39 Lon: 142.23 Height: 10.0 m
Data from the previous 72 hours. | See also: Recent months at Port Fairy
Date/Time
EST
Wind Sea
Height
m
Swell Vis
km
Cloud Weather Temp
°C
Press
MSL
hPa
Rain since
9am
mm
Dir  Spd
kts
Gust
kts
Height
m
Period
s
Dir
23/03:00am NNW 3 4 - - - - - - - 4.5 1027.8 0.0
23/02:30am NNW 3 5 - - - - - - - 4.4 1027.9 0.0
23/02:00am NNW 4 5 - - - - - - - 4.7 1027.9 0.0
23/01:30am NNW 4 5 - - - - - - - 5.0 1028.0 0.0
23/01:00am NNW 4 5 - - - - - - - 4.9 1028.0 0.0
23/12:30am NNW 4 5 - - - - - - - 5.1 1028.0 0.0
23/12:00am NNW 3 4 - - - - - - - 5.1 1027.9 0.0
 
Date/Time
EST
Wind Sea
Height
m
Swell Vis
km
Cloud Weather Temp
°C
Press
MSL
hPa
Rain since
9am
mm
Dir  Spd
kts
Gust
kts
Height
m
Period
s
Dir
22/11:30pm NNW 3 4 - - - - - - - 5.5 1027.9 0.0
22/11:00pm NNW 3 4 - - - - - - - 5.4 1028.1 0.0
22/10:30pm NNW 3 4 - - - - - - - 5.7 1028.1 0.0
22/10:00pm NNW 3 3 - - - - - - - 6.0 1028.1 0.0
22/09:30pm NNW 3 3 - - - - - - - 6.6 1027.9 0.0
22/09:00pm NNW 3 4 - - - - - - - 7.4 1028.0 0.0
22/08:30pm NW 3 3 - - - - - - - 7.7 1028.2 0.0
22/08:00pm NW 3 4 - - - - - - - 8.4 1028.2 0.0
22/07:30pm NW 3 3 - - - - - - - 9.1 1027.9 0.0
22/07:00pm WSW 3 4 - - - - - - - 10.9 1027.8 0.0
22/06:30pm SW 5 7 - - - - - - - 11.9 1027.8 0.0
22/06:00pm SW 5 8 - - - - - - - 11.9 1027.7 0.0
22/05:30pm WSW 3 6 - - - - - - - 12.2 1027.6 0.0
22/05:00pm WSW 5 7 - - - - - - - 13.3 1027.6 0.0
22/04:30pm SW 5 8 - - - - - - - 14.1 1027.5 0.0
22/04:00pm SW 6 9 - - - - - - - 14.8 1027.5 0.0
22/03:30pm SW 6 9 - - - - - - - 15.4 1027.3 0.0
22/03:00pm SW 6 9 - - - - - - - 15.4 1027.5 0.0
22/02:30pm WSW 8 11 - - - - - - - 16.0 1027.6 0.0
22/02:00pm WSW 7 11 - - - - - - - 16.0 1027.8 0.0
22/01:30pm WSW 8 10 - - - - - - - 15.9 1028.0 0.0
22/01:00pm WSW 7 10 - - - - - - - 15.4 1028.3 0.0
22/12:30pm WSW 7 11 - - - - - - - 15.5 1028.6 0.0
22/12:00pm WSW 8 12 - - - - - - - 15.6 1029.0 0.0
22/11:30am WSW 7 9 - - - - - - - 15.5 1029.2 0.0
22/11:00am WNW 5 9 - - - - - - - 14.6 1029.5 0.0
22/10:30am NW 4 6 - - - - - - - 11.9 1029.5 0.0
22/10:00am NW 4 6 - - - - - - - 10.0 1029.5 0.0
22/09:30am NW 4 6 - - - - - - - 8.1 1029.5 0.0
22/09:00am NW 4 7 - - - - - - - 6.0 1029.4 0.0
22/08:30am NW 4 6 - - - - - - - 5.5 1029.5 0.0
22/08:00am NW 4 6 - - - - - - - 5.5 1029.2 0.0
22/07:30am NW 4 6 - - - - - - - 5.7 1029.1 0.0
22/07:00am NW 4 6 - - - - - - - 5.7 1028.9 0.0
22/06:30am NNW 3 5 - - - - - - - 5.6 1028.8 0.0
22/06:00am NW 4 5 - - - - - - - 5.7 1028.7 0.0
22/05:30am NW 4 6 - - - - - - - 5.8 1028.6 0.0
22/05:00am NW 4 5 - - - - - - - 5.8 1028.5 0.0
22/04:30am NNW 2 3 - - - - - - - 5.7 1028.7 0.0
22/04:00am NW 3 4 - - - - - - - 6.3 1028.7 0.0
22/03:30am NW 3 3 - - - - - - - 7.5 1028.8 0.0
22/03:00am NW 2 3 - - - - - - - 8.6 1029.1 0.0
22/02:30am SE 5 6 - - - - - - - 11.5 1029.0 0.0
22/02:00am SE 5 7 - - - - - - - 11.9 1029.2 0.0
22/01:30am SE 6 8 - - - - - - - 12.7 1029.4 0.0
22/01:00am SE 6 8 - - - - - - - 12.7 1029.5 0.0
22/12:30am SE 5 9 - - - - - - - 12.6 1029.8 0.0
22/12:00am SE 8 10 - - - - - - - 12.9 1029.9 0.0
 
Date/Time
EST
Wind Sea
Height
m
Swell Vis
km
Cloud Weather Temp
°C
Press
MSL
hPa
Rain since
9am
mm
Dir  Spd
kts
Gust
kts
Height
m
Period
s
Dir
21/11:30pm SE 7 9 - - - - - - - 13.0 1030.2 0.0
21/11:00pm SSE 3 5 - - - - - - - 12.8 1030.2 0.0
21/10:30pm SSE 5 7 - - - - - - - 12.7 1030.6 0.0
21/10:00pm SSE 3 4 - - - - - - - 12.0 1030.7 0.0
21/09:30pm SSE 2 3 - - - - - - - 12.0 1030.8 0.0
21/09:00pm SSE 2 3 - - - - - - - 12.0 1030.9 0.0
21/08:30pm SE 7 11 - - - - - - - 12.2 1031.2 0.0
21/08:00pm SE 5 8 - - - - - - - 12.0 1031.2 0.0
21/07:30pm SSE 4 5 - - - - - - - 11.8 1031.2 0.0
21/07:00pm S 5 8 - - - - - - - 12.1 1031.2 0.0
21/06:30pm SSE 5 9 - - - - - - - 12.0 1031.0 0.0
21/06:00pm SE 7 11 - - - - - - - 11.8 1030.8 0.0
21/05:30pm SSE 6 8 - - - - - - - 12.1 1030.6 0.0
21/05:00pm SSE 7 11 - - - - - - - 12.2 1030.7 0.0
21/04:30pm SE 8 12 - - - - - - - 12.5 1030.6 0.0
21/04:00pm SSE 6 9 - - - - - - - 12.8 1030.6 0.0
21/03:30pm SSE 6 9 - - - - - - - 12.9 1030.7 0.0
21/03:00pm SSE 7 10 - - - - - - - 12.9 1030.7 0.0
21/02:30pm SSE 8 11 - - - - - - - 13.1 1030.8 0.0
21/02:00pm SSE 9 13 - - - - - - - 13.0 1031.0 0.0
21/01:30pm SSE 10 14 - - - - - - - 12.9 1031.3 0.0
21/01:00pm SSE 7 11 - - - - - - - 13.3 1031.6 0.0
21/12:30pm SSE 8 13 - - - - - - - 13.3 1031.9 0.0
21/12:00pm SSE 10 13 - - - - - - - 13.0 1032.3 0.0
21/11:30am SSE 11 15 - - - - - - - 13.1 1032.5 0.0
21/11:00am SSE 10 14 - - - - - - - 13.1 1032.5 0.0
21/10:30am SSE 8 11 - - - - - - - 13.0 1032.4 0.0
21/10:00am SSE 9 13 - - - - - - - 12.9 1032.4 0.0
21/09:30am SSE 10 13 - - - - - - - 12.6 1032.4 0.0
21/09:00am SSE 9 14 - - - - - - - 12.4 1032.2 1.0
21/08:30am SSE 11 15 - - - - - - - 12.3 1031.8 1.0
21/08:00am SSE 10 13 - - - - - - - 12.2 1031.4 1.0
21/07:30am SSE 9 14 - - - - - - - 12.0 1031.2 1.0
21/07:00am SSE 10 15 - - - - - - - 11.9 1031.0 1.0
21/06:30am SSE 8 12 - - - - - - - 12.1 1031.0 1.0
21/06:00am SSE 9 12 - - - - - - - 12.2 1030.9 1.0
21/05:30am SSE 10 13 - - - - - - - 12.1 1030.8 1.0
21/05:00am SSE 10 14 - - - - - - - 12.0 1030.8 1.0
21/04:30am SSE 10 15 - - - - - - - 12.0 1030.7 1.0
21/04:00am SSE 8 12 - - - - - - - 11.9 1030.8 1.0
21/03:30am SSE 9 12 - - - - - - - 11.5 1031.0 1.0
21/03:00am SSE 9 13 - - - - - - - 11.4 1031.2 1.0
21/02:30am SSE 9 12 - - - - - - - 11.5 1031.2 1.0
21/02:00am SSE 10 14 - - - - - - - 11.4 1031.3 1.0
21/01:30am SSE 9 13 - - - - - - - 11.5 1031.4 1.0
21/01:00am SSE 11 15 - - - - - - - 11.6 1031.4 1.0
21/12:30am SSE 11 15 - - - - - - - 11.5 1031.5 1.0
21/12:00am SSE 9 14 - - - - - - - 11.5 1031.5 1.0
 
Date/Time
EST
Wind Sea
Height
m
Swell Vis
km
Cloud Weather Temp
°C
Press
MSL
hPa
Rain since
9am
mm
Dir  Spd
kts
Gust
kts
Height
m
Period
s
Dir
20/11:30pm SSE 9 12 - - - - - - - 10.9 1031.6 1.0
20/11:00pm SSE 8 15 - - - - - - - 10.9 1031.6 1.0
20/10:30pm SE 10 15 - - - - - - - 10.5 1031.7 1.0
20/10:00pm SSE 8 13 - - - - - - - 10.9 1031.8 1.0
20/09:30pm SSE 9 13 - - - - - - - 10.9 1031.7 1.0
20/09:00pm S 4 7 - - - - - - Recent precip. 11.0 1031.6 1.0
20/08:30pm S 7 11 - - - - - - - 11.0 1031.3 0.8
20/08:00pm S 6 11 - - - - - - - 11.3 1031.1 0.8
20/07:30pm S 7 11 - - - - - - - 11.5 1031.0 0.4
20/07:00pm SSE 8 11 - - - - - - - 11.4 1030.8 0.4
20/06:30pm S 7 13 - - - - - - - 11.8 1030.6 0.4
20/06:00pm S 7 11 - - - - - - - 11.7 1030.4 0.4
20/05:30pm SSW 8 13 - - - - - - - 11.9 1030.1 0.4
20/05:00pm S 8 10 - - - - - - - 12.4 1029.9 0.4
20/04:30pm SSE 8 11 - - - - - - - 12.6 1029.7 0.4
20/04:00pm S 5 9 - - - - - - - 12.7 1029.7 0.4
20/03:30pm S 6 10 - - - - - - - 12.7 1029.6 0.4
20/03:00pm SSE 6 8 - - - - - - Recent precip. 12.8 1029.4 0.4
20/02:30pm SE 4 8 - - - - - - - 12.9 1029.4 0.4
20/02:00pm SSE 7 9 - - - - - - - 12.8 1029.3 0.2
20/01:30pm SSE 8 10 - - - - - - - 12.6 1029.4 0.2
20/01:00pm SSE 7 10 - - - - - - - 13.5 1029.5 0.0
20/12:30pm SSE 6 9 - - - - - - - 13.2 1029.7 0.0
20/12:00pm SSW 7 10 - - - - - - - 14.1 1030.0 0.0
20/11:30am S 9 14 - - - - - - - 13.0 1030.2 0.0
20/11:00am S 10 15 - - - - - - - 13.6 1030.2 0.0
20/10:30am S 10 18 - - - - - - - 12.9 1030.0 0.0
20/10:00am S 9 13 - - - - - - - 13.3 1029.9 0.0
20/09:30am SSE 11 15 - - - - - - - 12.4 1029.7 0.0
20/09:00am SSE 10 15 - - - - - - Recent precip. 12.6 1029.4 2.0
20/08:30am S 9 13 - - - - - - - 12.0 1029.0 2.0
20/08:00am S 9 14 - - - - - - - 12.1 1028.8 1.8
20/07:30am SSE 10 13 - - - - - - - 12.0 1028.4 1.8
20/07:00am S 8 13 - - - - - - - 12.1 1028.1 1.8
20/06:30am SSW 9 14 - - - - - - - 12.2 1027.7 1.8
20/06:00am SSE 11 14 - - - - - - - 12.1 1027.5 1.8
20/05:30am S 11 18 - - - - - - - 12.0 1027.3 1.8
20/05:00am S 10 14 - - - - - - - 12.0 1027.1 1.8
20/04:30am S 10 15 - - - - - - - 12.3 1026.8 1.8
20/04:00am SSE 12 18 - - - - - - - 12.1 1026.6 1.8

Other formats

Comma delimited format used in spreadsheet applications
http://www.bom.gov.au/fwo/IDV60701/IDV60701.94830.axf

JavaScript Object Notation format (JSON) in row-major order
http://www.bom.gov.au/fwo/IDV60701/IDV60701.94830.json

Data quality

Most of these data are generated automatically and are frequently updated. Quality checks on data are not normally performed. It is possible for incorrect values to appear. Refer to information at About Latest Weather Observations and please check the disclaimer before using these data.